createdAt,value
2019-05-29T00:01:48.203Z,98452.15
2019-05-29T00:04:18.475Z,98454.84
2019-05-29T00:06:48.146Z,98453.75
2019-05-29T00:09:18.432Z,98453.59
2019-05-29T00:11:48.052Z,98457.94
2019-05-29T00:14:25.732Z,98461.92
2019-05-29T00:16:48.764Z,98469.63
2019-05-29T00:19:18.712Z,98468.34
2019-05-29T00:21:48.366Z,98473.94
2019-05-29T00:24:18.840Z,98475.06
2019-05-29T00:27:00.439Z,98475.83
2019-05-29T00:29:29.909Z,98477.23
2019-05-29T00:31:59.433Z,98477.86
2019-05-29T00:34:28.905Z,98475.59
2019-05-29T00:36:58.394Z,98482.02
2019-05-29T00:39:27.895Z,98481.09
2019-05-29T00:41:57.366Z,98482.75
2019-05-29T00:44:34.233Z,98487.77
2019-05-29T00:47:00.950Z,98483.80
2019-05-29T00:49:49.791Z,98487.06
2019-05-29T00:52:19.281Z,98490.67
2019-05-29T00:54:48.749Z,98492.47
2019-05-29T00:57:19.043Z,98496.92
2019-05-29T00:59:48.588Z,98498.36
2019-05-29T01:02:18.085Z,98497.88
2019-05-29T01:05:08.045Z,98495.98
2019-05-29T01:07:37.561Z,98498.23
2019-05-29T01:10:08.825Z,98496.44
2019-05-29T01:12:38.317Z,98506.11
2019-05-29T01:15:09.395Z,98509.16
2019-05-29T01:17:40.409Z,98515.94
2019-05-29T01:20:17.978Z,98520.29
2019-05-29T01:22:47.553Z,98522.24
2019-05-29T01:25:18.678Z,98527.58
2019-05-29T01:27:48.325Z,98528.92
2019-05-29T01:30:19.386Z,98533.80
2019-05-29T01:32:49.011Z,98531.94
2019-05-29T01:35:19.995Z,98536.72
2019-05-29T01:37:49.607Z,98539.77
2019-05-29T01:40:24.705Z,98541.70
2019-05-29T01:42:50.493Z,98539.50
2019-05-29T01:45:20.134Z,98545.07
2019-05-29T01:47:49.628Z,98550.24
2019-05-29T01:50:19.708Z,98553.99
2019-05-29T01:52:49.173Z,98551.50
2019-05-29T01:55:19.795Z,98545.91
2019-05-29T01:57:49.294Z,98545.52
2019-05-29T02:00:20.268Z,98548.66
2019-05-29T02:02:49.755Z,98551.40
2019-05-29T02:05:20.029Z,98553.22
2019-05-29T02:07:49.763Z,98559.54
2019-05-29T02:10:38.843Z,98562.25
2019-05-29T02:13:08.342Z,98563.34
2019-05-29T02:15:37.998Z,98564.92
2019-05-29T02:18:07.747Z,98571.98
2019-05-29T02:20:37.241Z,98574.81
2019-05-29T02:23:06.710Z,98571.81
2019-05-29T02:25:36.572Z,98573.69
2019-05-29T02:28:06.164Z,98576.66
2019-05-29T02:30:35.679Z,98573.56
2019-05-29T02:33:05.405Z,98578.40
2019-05-29T02:35:34.917Z,98580.58
2019-05-29T02:38:04.562Z,98584.38
2019-05-29T02:40:34.246Z,98586.55
2019-05-29T02:43:03.728Z,98589.44
2019-05-29T02:45:53.028Z,98593.61
2019-05-29T02:48:04.633Z,98590.95
2019-05-29T02:50:34.125Z,98591.29
2019-05-29T02:53:03.811Z,98590.13
2019-05-29T02:55:33.296Z,98595.91
2019-05-29T02:58:02.801Z,98593.80
2019-05-29T03:00:39.586Z,98601.17
2019-05-29T03:03:09.108Z,98609.41
2019-05-29T03:05:38.706Z,98613.72
2019-05-29T03:08:08.421Z,98609.05
2019-05-29T03:10:37.903Z,98615.59
2019-05-29T03:13:07.405Z,98621.38
2019-05-29T03:15:36.883Z,98619.02
2019-05-29T03:18:06.414Z,98625.06
2019-05-29T03:20:35.956Z,98627.81
2019-05-29T03:23:05.848Z,98635.27
2019-05-29T03:25:36.924Z,98640.09
2019-05-29T03:28:07.258Z,98643.16
2019-05-29T03:30:42.164Z,98645.36
2019-05-29T03:33:07.963Z,98648.24
2019-05-29T03:35:43.113Z,98656.02
2019-05-29T03:38:08.672Z,98656.13
2019-05-29T03:40:38.719Z,98653.62
2019-05-29T03:43:08.351Z,98663.45
2019-05-29T03:45:38.153Z,98663.14
2019-05-29T03:48:07.904Z,98660.39
2019-05-29T03:50:38.353Z,98662.80
2019-05-29T03:53:08.091Z,98671.20
2019-05-29T03:55:40.353Z,98672.17
2019-05-29T03:58:09.819Z,98672.64
2019-05-29T04:00:45.997Z,98682.39
2019-05-29T04:03:10.813Z,98681.02
2019-05-29T04:05:43.572Z,98681.19
2019-05-29T04:08:13.076Z,98682.65
2019-05-29T04:10:42.558Z,98684.01
2019-05-29T04:13:12.064Z,98693.22
2019-05-29T04:15:44.514Z,98693.86
2019-05-29T04:18:19.560Z,98696.58
2019-05-29T04:20:51.354Z,98701.63
2019-05-29T04:23:22.978Z,98705.59
2019-05-29T04:25:56.843Z,98702.30
2019-05-29T04:28:27.938Z,98708.45
2019-05-29T04:30:57.564Z,98709.45
2019-05-29T04:33:28.158Z,98703.09
2019-05-29T04:36:06.522Z,98710.28
2019-05-29T04:38:37.799Z,98713.94
2019-05-29T04:41:08.718Z,98715.11
2019-05-29T04:43:44.190Z,98717.33
2019-05-29T04:46:13.688Z,98721.86
2019-05-29T04:48:43.164Z,98726.97
2019-05-29T04:51:12.670Z,98733.25
2019-05-29T04:53:42.192Z,98742.41
2019-05-29T04:56:11.657Z,98746.49
2019-05-29T04:58:41.137Z,98755.81
2019-05-29T05:01:10.601Z,98758.02
2019-05-29T05:03:40.088Z,98764.11
2019-05-29T05:06:09.581Z,98768.91
2019-05-29T05:08:39.663Z,98773.03
2019-05-29T05:11:11.340Z,98778.95
2019-05-29T05:13:41.091Z,98782.75
2019-05-29T05:16:10.587Z,98785.03
2019-05-29T05:18:40.375Z,98787.09
2019-05-29T05:21:10.006Z,98790.28
2019-05-29T05:23:40.598Z,98789.60
2019-05-29T05:26:10.601Z,98788.60
2019-05-29T05:28:44.022Z,98792.57
2019-05-29T05:31:11.588Z,98790.06
2019-05-29T05:33:41.269Z,98793.34
2019-05-29T05:36:11.003Z,98793.78
2019-05-29T05:38:41.055Z,98799.80
2019-05-29T05:41:11.093Z,98802.61
2019-05-29T05:43:41.313Z,98808.52
2019-05-29T05:46:11.231Z,98813.73
2019-05-29T05:48:41.554Z,98808.14
2019-05-29T05:51:12.816Z,98808.75
2019-05-29T05:53:42.300Z,98816.29
2019-05-29T05:56:12.027Z,98817.86
2019-05-29T05:58:42.193Z,98823.73
2019-05-29T06:01:12.434Z,98820.77
2019-05-29T06:03:42.819Z,98824.84
2019-05-29T06:06:12.466Z,98817.28
2019-05-29T06:08:42.515Z,98818.84
2019-05-29T06:11:12.260Z,98822.39
2019-05-29T06:13:42.718Z,98824.81
2019-05-29T06:16:12.664Z,98822.37
2019-05-29T06:18:43.045Z,98832.95
2019-05-29T06:21:12.828Z,98829.30
2019-05-29T06:23:43.517Z,98831.93
2019-05-29T06:26:14.000Z,98827.70
2019-05-29T06:28:43.950Z,98839.27
2019-05-29T06:31:13.765Z,98836.58
2019-05-29T06:33:43.995Z,98843.27
2019-05-29T06:36:13.752Z,98842.16
2019-05-29T06:38:44.257Z,98848.11
2019-05-29T06:41:14.688Z,98841.41
2019-05-29T06:43:44.620Z,98852.66
2019-05-29T06:46:14.337Z,98858.47
2019-05-29T06:48:57.054Z,98850.19
2019-05-29T06:51:15.142Z,98856.36
2019-05-29T06:53:44.710Z,98858.88
2019-05-29T06:56:14.676Z,98860.88
2019-05-29T06:58:44.789Z,98864.30
2019-05-29T07:01:14.261Z,98864.73
2019-05-29T07:03:44.101Z,98870.02
2019-05-29T07:06:13.796Z,98874.44
2019-05-29T07:08:47.702Z,98879.91
2019-05-29T07:11:14.455Z,98885.09
2019-05-29T07:13:47.513Z,98885.42
2019-05-29T07:16:16.851Z,98885.92
2019-05-29T07:19:22.665Z,98885.41
2019-05-29T07:21:17.668Z,98888.63
2019-05-29T07:23:48.815Z,98886.17
2019-05-29T07:26:18.624Z,98892.27
2019-05-29T07:29:07.093Z,98902.27
2019-05-29T07:31:19.390Z,98900.14
2019-05-29T07:33:48.867Z,98901.22
2019-05-29T07:36:18.372Z,98903.67
2019-05-29T07:39:00.802Z,98902.92
2019-05-29T07:41:19.463Z,98897.78
2019-05-29T07:43:48.948Z,98894.52
2019-05-29T07:46:18.464Z,98894.16
2019-05-29T07:48:50.084Z,98903.70
2019-05-29T07:51:19.156Z,98903.79
2019-05-29T07:53:48.993Z,98907.71
2019-05-29T07:56:22.704Z,98906.06
2019-05-29T07:59:01.789Z,98908.55
2019-05-29T08:01:21.358Z,98909.45
2019-05-29T08:03:50.827Z,98909.09
2019-05-29T08:06:21.378Z,98915.73
2019-05-29T08:08:51.134Z,98911.83
2019-05-29T08:11:20.757Z,98911.63
2019-05-29T08:13:51.103Z,98915.08
2019-05-29T08:16:20.625Z,98917.64
2019-05-29T08:18:52.843Z,98929.06
2019-05-29T08:21:22.891Z,98941.67
2019-05-29T08:23:52.365Z,98939.65
2019-05-29T08:26:21.923Z,98937.23
2019-05-29T08:28:51.528Z,98934.48
2019-05-29T08:31:21.293Z,98933.82
2019-05-29T08:33:51.230Z,98935.09
2019-05-29T08:36:21.295Z,98940.92
2019-05-29T08:38:59.665Z,98871.08
2019-05-29T08:41:29.162Z,98942.14
2019-05-29T08:43:58.655Z,98937.71
2019-05-29T08:46:28.111Z,98943.48
2019-05-29T08:48:57.762Z,98949.63
2019-05-29T08:51:27.218Z,98961.62
2019-05-29T08:53:56.780Z,98957.55
2019-05-29T08:56:26.405Z,98952.47
2019-05-29T08:58:55.907Z,98956.38
2019-05-29T09:01:25.437Z,98963.75
2019-05-29T09:03:55.434Z,98960.56
2019-05-29T09:06:24.925Z,98951.01
2019-05-29T09:08:55.094Z,98954.41
2019-05-29T09:11:24.867Z,98953.98
2019-05-29T09:13:54.348Z,98946.17
2019-05-29T09:16:23.987Z,98936.89
2019-05-29T09:18:53.580Z,98943.34
2019-05-29T09:21:26.507Z,98930.99
2019-05-29T09:23:58.325Z,98918.36
2019-05-29T09:26:26.114Z,98929.30
2019-05-29T09:28:56.009Z,98927.59
2019-05-29T09:31:25.499Z,98917.74
2019-05-29T09:33:55.080Z,98911.92
2019-05-29T09:36:24.795Z,98919.28
2019-05-29T09:38:54.587Z,98925.09
2019-05-29T09:41:25.606Z,98927.14
2019-05-29T09:43:59.561Z,98925.36
2019-05-29T09:46:29.027Z,98915.00
2019-05-29T09:49:01.443Z,98942.44
2019-05-29T09:51:29.750Z,98921.60
2019-05-29T09:54:01.080Z,98945.81
2019-05-29T09:56:30.527Z,98944.71
2019-05-29T09:59:01.664Z,98947.47
2019-05-29T10:01:31.240Z,98938.41
2019-05-29T10:04:20.026Z,98939.93
2019-05-29T10:06:49.509Z,98947.25
2019-05-29T10:09:19.016Z,98936.09
2019-05-29T10:11:48.522Z,98945.95
2019-05-29T10:14:18.152Z,98943.89
2019-05-29T10:16:47.675Z,98948.78
2019-05-29T10:19:17.167Z,98945.36
2019-05-29T10:21:46.788Z,98962.53
2019-05-29T10:24:16.386Z,98968.79
2019-05-29T10:26:45.907Z,98961.94
2019-05-29T10:29:15.542Z,98980.30
2019-05-29T10:31:47.151Z,98983.96
2019-05-29T10:34:16.583Z,98977.88
2019-05-29T10:36:49.942Z,98976.55
2019-05-29T10:39:17.841Z,98971.83
2019-05-29T10:41:47.362Z,98966.92
2019-05-29T10:44:16.701Z,98957.94
2019-05-29T10:46:49.915Z,98947.97
2019-05-29T10:49:18.886Z,98958.52
2019-05-29T10:52:06.283Z,98960.02
2019-05-29T10:54:19.608Z,98962.57
2019-05-29T10:56:50.693Z,98981.07
2019-05-29T10:59:39.699Z,98981.44
2019-05-29T11:02:09.772Z,98968.43
2019-05-29T11:04:39.247Z,98954.31
2019-05-29T11:07:11.529Z,98955.80
2019-05-29T11:09:44.783Z,98973.32
2019-05-29T11:12:12.126Z,98966.95
2019-05-29T11:14:41.633Z,98967.53
2019-05-29T11:17:11.169Z,98956.65
2019-05-29T11:19:40.667Z,98960.91
2019-05-29T11:22:25.084Z,98946.59
2019-05-29T11:24:41.404Z,98944.55
2019-05-29T11:27:11.073Z,98945.62
2019-05-29T11:29:41.407Z,98944.41
2019-05-29T11:32:10.908Z,98934.25
2019-05-29T11:34:40.438Z,98939.31
2019-05-29T11:37:10.952Z,98941.80
2019-05-29T11:39:40.458Z,98941.05
2019-05-29T11:42:26.033Z,98951.04
2019-05-29T11:44:41.149Z,98953.04
2019-05-29T11:47:12.438Z,98957.45
2019-05-29T11:49:48.929Z,98960.40
2019-05-29T11:52:24.089Z,98949.14
2019-05-29T11:54:55.584Z,98957.42
2019-05-29T11:57:20.980Z,98951.19
2019-05-29T11:59:51.749Z,98955.45
2019-05-29T12:02:21.734Z,98951.26
2019-05-29T12:04:51.208Z,98956.69
2019-05-29T12:07:20.704Z,98952.89
2019-05-29T12:09:51.367Z,98950.98
2019-05-29T12:12:21.068Z,98954.83
2019-05-29T12:15:06.103Z,98949.37
2019-05-29T12:17:28.997Z,98945.64
2019-05-29T12:19:59.856Z,98936.41
2019-05-29T12:22:29.845Z,98930.48
2019-05-29T12:25:00.579Z,98926.17
2019-05-29T12:27:30.426Z,98945.44
2019-05-29T12:30:03.166Z,98939.97
2019-05-29T12:32:45.493Z,98941.39
2019-05-29T12:35:15.877Z,98932.45
2019-05-29T12:37:45.352Z,98919.61
2019-05-29T12:40:15.988Z,98912.11
2019-05-29T12:42:45.491Z,98907.52
2019-05-29T12:45:15.613Z,98911.28
2019-05-29T12:47:47.867Z,98913.00
2019-05-29T12:50:18.919Z,98914.90
2019-05-29T12:52:49.144Z,98919.16
2019-05-29T12:55:19.307Z,98923.58
2019-05-29T12:57:48.760Z,98915.83
2019-05-29T13:00:20.170Z,98907.66
2019-05-29T13:02:49.619Z,98915.86
2019-05-29T13:05:20.933Z,98915.14
2019-05-29T13:07:50.636Z,98930.55
2019-05-29T13:10:30.798Z,98912.13
2019-05-29T13:12:59.006Z,98931.08
2019-05-29T13:15:25.543Z,98931.67
2019-05-29T13:18:00.911Z,98916.09
2019-05-29T13:20:26.786Z,98913.84
2019-05-29T13:22:57.684Z,98905.91
2019-05-29T13:25:27.290Z,98924.09
2019-05-29T13:27:59.346Z,98923.91
2019-05-29T13:30:29.614Z,98931.58
2019-05-29T13:33:03.105Z,98929.50
2019-05-29T13:35:51.915Z,98923.31
2019-05-29T13:38:21.384Z,98911.83
2019-05-29T13:40:51.365Z,98920.86
2019-05-29T13:43:20.870Z,98909.55
2019-05-29T13:45:51.234Z,98903.23
2019-05-29T13:48:23.383Z,98895.57
2019-05-29T13:50:51.964Z,98890.08
2019-05-29T13:53:21.425Z,98894.89
2019-05-29T13:55:50.910Z,98883.92
2019-05-29T13:58:20.489Z,98891.95
2019-05-29T14:00:49.952Z,98887.62
2019-05-29T14:03:19.495Z,98904.27
2019-05-29T14:05:48.988Z,98919.98
2019-05-29T14:08:18.458Z,98918.14
2019-05-29T14:11:07.363Z,98913.13
2019-05-29T14:13:36.890Z,98904.14
2019-05-29T14:16:06.873Z,98904.13
2019-05-29T14:18:36.540Z,98909.49
2019-05-29T14:21:07.403Z,98901.24
2019-05-29T14:23:39.572Z,98898.35
2019-05-29T14:26:08.643Z,98904.48
2019-05-29T14:28:57.618Z,98895.80
2019-05-29T14:31:27.390Z,98895.45
2019-05-29T14:33:56.894Z,98899.66
2019-05-29T14:36:26.560Z,98913.59
2019-05-29T14:38:56.161Z,98921.97
2019-05-29T14:41:27.174Z,98922.36
2019-05-29T14:43:56.789Z,98930.53
2019-05-29T14:46:45.638Z,98928.50
2019-05-29T14:49:15.120Z,98932.46
2019-05-29T14:51:44.632Z,98934.20
2019-05-29T14:54:14.157Z,98935.43
2019-05-29T14:56:43.823Z,98932.85
2019-05-29T14:59:13.731Z,98930.90
2019-05-29T15:01:43.448Z,98933.77
2019-05-29T15:04:14.598Z,98942.90
2019-05-29T15:06:44.159Z,98947.09
2019-05-29T15:09:13.901Z,98956.42
2019-05-29T15:11:43.560Z,98954.86
2019-05-29T15:14:14.331Z,98959.03
2019-05-29T15:16:44.021Z,98962.72
2019-05-29T15:19:13.574Z,98962.97
2019-05-29T15:21:43.125Z,98964.50
2019-05-29T15:24:13.659Z,98961.55
2019-05-29T15:26:43.334Z,98963.52
2019-05-29T15:29:15.146Z,98963.45
2019-05-29T15:31:48.468Z,98976.36
2019-05-29T15:34:17.965Z,98970.27
2019-05-29T15:36:47.496Z,98967.94
2019-05-29T15:39:17.019Z,98971.89
2019-05-29T15:41:52.243Z,98973.73
2019-05-29T15:44:24.820Z,98971.86
2019-05-29T15:46:55.857Z,98968.87
2019-05-29T15:49:34.377Z,98970.97
2019-05-29T15:52:03.729Z,98974.66
2019-05-29T15:54:33.276Z,98972.41
2019-05-29T15:57:02.778Z,98976.47
2019-05-29T15:59:32.257Z,98984.39
2019-05-29T16:02:01.751Z,98983.53
2019-05-29T16:04:31.282Z,98984.97
2019-05-29T16:07:02.295Z,98988.62
2019-05-29T16:09:31.775Z,98989.28
2019-05-29T16:12:20.555Z,98984.30
2019-05-29T16:14:50.236Z,98987.73
2019-05-29T16:17:19.804Z,98983.77
2019-05-29T16:19:49.348Z,98979.39
2019-05-29T16:22:19.084Z,98985.20
2019-05-29T16:24:48.724Z,98985.50
2019-05-29T16:27:18.277Z,98983.69
2019-05-29T16:29:47.747Z,98984.20
2019-05-29T16:32:17.814Z,98984.88
2019-05-29T16:34:47.483Z,98988.91
2019-05-29T16:37:36.341Z,98991.10
2019-05-29T16:40:11.757Z,98997.03
2019-05-29T16:42:41.449Z,98998.91
2019-05-29T16:45:14.075Z,99007.80
2019-05-29T16:47:43.760Z,99015.38
2019-05-29T16:50:17.274Z,99019.80
2019-05-29T16:52:46.829Z,99019.75
2019-05-29T16:55:19.362Z,99027.86
2019-05-29T16:57:49.009Z,99037.00
2019-05-29T17:00:19.668Z,99041.91
2019-05-29T17:02:49.165Z,99045.89
2019-05-29T17:05:20.526Z,99048.82
2019-05-29T17:07:50.518Z,99044.08
2019-05-29T17:10:24.522Z,99045.78
2019-05-29T17:12:54.295Z,99048.83
2019-05-29T17:15:24.755Z,99044.79
2019-05-29T17:17:54.399Z,99049.59
2019-05-29T17:20:28.422Z,99051.40
2019-05-29T17:22:57.915Z,99052.22
2019-05-29T17:25:28.505Z,99056.84
2019-05-29T17:27:58.215Z,99060.87
2019-05-29T17:30:31.339Z,99059.09
2019-05-29T17:33:01.810Z,99061.88
2019-05-29T17:35:31.351Z,99067.29
2019-05-29T17:38:00.853Z,99071.75
2019-05-29T17:40:30.549Z,99068.38
2019-05-29T17:43:24.292Z,99069.00
2019-05-29T17:45:50.606Z,99069.88
2019-05-29T17:48:20.065Z,99069.05
2019-05-29T17:50:49.611Z,99063.75
2019-05-29T17:53:19.897Z,99065.76
2019-05-29T17:55:49.602Z,99068.41
2019-05-29T17:58:38.410Z,99071.55
2019-05-29T18:01:08.374Z,99071.55
2019-05-29T18:03:37.871Z,99072.70
2019-05-29T18:06:26.980Z,99082.23
2019-05-29T18:08:56.474Z,99085.75
2019-05-29T18:11:27.743Z,99084.11
2019-05-29T18:14:03.064Z,99088.41
2019-05-29T18:16:30.100Z,99088.11
2019-05-29T18:19:19.758Z,99088.52
2019-05-29T18:21:49.368Z,99090.09
2019-05-29T18:24:38.222Z,99091.42
2019-05-29T18:27:07.798Z,99092.61
2019-05-29T18:29:37.266Z,99097.44
2019-05-29T18:32:06.768Z,99098.27
2019-05-29T18:34:36.265Z,99096.83
2019-05-29T18:37:05.855Z,99099.11
2019-05-29T18:39:35.387Z,99095.24
2019-05-29T18:42:05.453Z,99096.69
2019-05-29T18:44:34.955Z,99098.83
2019-05-29T18:47:04.503Z,99103.34
2019-05-29T18:49:34.003Z,99102.23
2019-05-29T18:52:03.498Z,99104.38
2019-05-29T18:54:33.160Z,99103.10
2019-05-29T18:57:15.327Z,99107.16
2019-05-29T18:59:33.983Z,99116.95
2019-05-29T19:02:03.647Z,99121.62
2019-05-29T19:04:33.154Z,99122.41
2019-05-29T19:07:02.683Z,99128.62
2019-05-29T19:09:33.825Z,99131.68
2019-05-29T19:12:03.456Z,99138.84
2019-05-29T19:14:33.151Z,99140.56
2019-05-29T19:17:02.637Z,99140.97
2019-05-29T19:19:32.505Z,99143.12
2019-05-29T19:22:02.212Z,99145.27
2019-05-29T19:24:32.848Z,99147.99
2019-05-29T19:27:02.660Z,99153.26
2019-05-29T19:29:33.356Z,99155.97
2019-05-29T19:32:05.142Z,99161.92
2019-05-29T19:34:34.822Z,99170.56
2019-05-29T19:37:04.411Z,99178.83
2019-05-29T19:39:34.197Z,99178.30
2019-05-29T19:42:05.531Z,99185.06
2019-05-29T19:44:35.164Z,99185.13
2019-05-29T19:47:04.904Z,99191.03
2019-05-29T19:49:35.286Z,99194.14
2019-05-29T19:52:05.232Z,99200.52
2019-05-29T19:54:35.734Z,99208.91
2019-05-29T19:57:25.925Z,99211.86
2019-05-29T19:59:55.577Z,99218.51
2019-05-29T20:02:26.395Z,99218.53
2019-05-29T20:04:56.074Z,99227.45
2019-05-29T20:07:26.937Z,99228.73
2019-05-29T20:09:56.565Z,99232.48
2019-05-29T20:12:27.439Z,99237.22
2019-05-29T20:14:57.096Z,99237.49
2019-05-29T20:17:27.852Z,99240.52
2019-05-29T20:20:16.913Z,99242.20
2019-05-29T20:22:46.400Z,99242.06
2019-05-29T20:25:16.765Z,99245.09
2019-05-29T20:27:46.454Z,99247.22
2019-05-29T20:30:19.422Z,99246.95
2019-05-29T20:32:50.489Z,99250.16
2019-05-29T20:35:39.299Z,99252.63
2019-05-29T20:38:08.800Z,99248.88
2019-05-29T20:40:39.430Z,99242.70
2019-05-29T20:43:09.143Z,99247.70
2019-05-29T20:45:39.756Z,99252.55
2019-05-29T20:48:09.315Z,99252.03
2019-05-29T20:50:39.157Z,99253.71
2019-05-29T20:53:08.885Z,99258.44
2019-05-29T20:55:38.343Z,99255.78
2019-05-29T20:58:23.650Z,99252.13
2019-05-29T21:00:40.350Z,99255.30
2019-05-29T21:03:09.977Z,99258.80
2019-05-29T21:05:40.723Z,99264.14
2019-05-29T21:08:10.623Z,99268.77
2019-05-29T21:10:41.921Z,99272.27
2019-05-29T21:13:30.854Z,99277.73
2019-05-29T21:16:00.355Z,99283.41
2019-05-29T21:18:29.821Z,99284.61
2019-05-29T21:21:00.271Z,99283.90
2019-05-29T21:23:29.727Z,99284.55
2019-05-29T21:25:59.198Z,99288.14
2019-05-29T21:28:39.806Z,99294.18
2019-05-29T21:30:59.926Z,99295.54
2019-05-29T21:33:29.423Z,99294.56
2019-05-29T21:35:58.926Z,99296.19
2019-05-29T21:38:47.715Z,99288.19
2019-05-29T21:41:17.223Z,99296.20
2019-05-29T21:43:47.065Z,99300.10
2019-05-29T21:46:16.694Z,99306.53
2019-05-29T21:48:47.422Z,99313.84
2019-05-29T21:51:17.154Z,99313.23
2019-05-29T21:53:47.621Z,99311.74
2019-05-29T21:56:17.308Z,99312.53
2019-05-29T21:58:59.960Z,99305.32
2019-05-29T22:01:38.001Z,99304.17
2019-05-29T22:04:07.753Z,99310.05
2019-05-29T22:06:38.416Z,99305.88
2019-05-29T22:09:12.622Z,99315.34
2019-05-29T22:11:42.655Z,99320.80
2019-05-29T22:14:12.353Z,99322.42
2019-05-29T22:16:42.379Z,99315.91
2019-05-29T22:19:12.057Z,99318.88
2019-05-29T22:21:41.525Z,99318.66
2019-05-29T22:24:11.005Z,99317.36
2019-05-29T22:26:40.513Z,99317.44
2019-05-29T22:29:17.818Z,99310.39
2019-05-29T22:31:41.416Z,99315.76
2019-05-29T22:34:10.924Z,99315.94
2019-05-29T22:36:40.551Z,99312.91
2019-05-29T22:39:10.136Z,99314.56
2019-05-29T22:41:39.631Z,99317.60
2019-05-29T22:44:09.290Z,99315.98
2019-05-29T22:46:38.775Z,99318.16
2019-05-29T22:49:08.265Z,99325.35
2019-05-29T22:51:37.747Z,99327.08
2019-05-29T22:54:07.558Z,99324.84
2019-05-29T22:56:37.011Z,99327.99
2019-05-29T22:59:06.510Z,99329.85
2019-05-29T23:01:36.033Z,99329.02
2019-05-29T23:04:05.749Z,99327.28
2019-05-29T23:06:35.247Z,99330.12
2019-05-29T23:09:08.677Z,99323.97
2019-05-29T23:11:38.142Z,99324.34
2019-05-29T23:14:07.713Z,99324.75
2019-05-29T23:16:37.263Z,99322.69
2019-05-29T23:19:06.774Z,99328.17
2019-05-29T23:21:36.248Z,99330.34
2019-05-29T23:24:05.972Z,99329.93
2019-05-29T23:26:35.472Z,99328.50
2019-05-29T23:29:04.928Z,99339.33
2019-05-29T23:31:34.458Z,99335.02
2019-05-29T23:34:05.832Z,99336.61
2019-05-29T23:36:35.232Z,99336.45
2019-05-29T23:39:06.274Z,99341.75
2019-05-29T23:41:35.742Z,99339.09
2019-05-29T23:44:06.126Z,99340.28
2019-05-29T23:46:35.944Z,99344.73
2019-05-29T23:49:05.708Z,99349.56
2019-05-29T23:51:36.743Z,99348.28
2019-05-29T23:54:06.335Z,99339.24
2019-05-29T23:56:35.823Z,99340.52
2019-05-29T23:59:06.827Z,99338.05
